createdAt,value
2022-08-17T00:00:03.785Z,5.80
2022-08-17T00:03:13.489Z,5.47
2022-08-17T00:05:49.700Z,6.07
2022-08-17T00:08:17.936Z,5.85
2022-08-17T00:10:45.251Z,6.35
2022-08-17T00:13:15.128Z,6.15
2022-08-17T00:15:41.980Z,4.68
2022-08-17T00:18:58.346Z,6.10
2022-08-17T00:20:56.719Z,5.03
2022-08-17T00:23:24.284Z,5.45
2022-08-17T00:25:51.499Z,5.22
2022-08-17T00:28:18.478Z,5.05
2022-08-17T00:30:53.196Z,5.40
2022-08-17T00:33:26.446Z,5.55
2022-08-17T00:35:54.402Z,6.38
2022-08-17T00:38:22.032Z,5.70
2022-08-17T00:40:51.823Z,5.93
2022-08-17T00:43:33.733Z,5.55
2022-08-17T00:46:02.397Z,5.43
2022-08-17T00:48:30.753Z,6.32
2022-08-17T00:51:39.030Z,5.88
2022-08-17T00:54:13.417Z,5.70
2022-08-17T00:56:42.861Z,5.80
2022-08-17T00:59:10.196Z,5.90
2022-08-17T01:01:37.181Z,5.63
2022-08-17T01:04:05.351Z,7.00
2022-08-17T01:06:32.493Z,5.25
2022-08-17T01:08:59.782Z,5.50
2022-08-17T01:11:28.050Z,5.72
2022-08-17T01:13:55.182Z,5.45
2022-08-17T01:16:28.405Z,4.95
2022-08-17T01:18:59.705Z,6.45
2022-08-17T01:21:36.091Z,6.00
2022-08-17T01:24:03.163Z,5.85
2022-08-17T01:26:30.336Z,5.35
2022-08-17T01:28:57.202Z,4.95
2022-08-17T01:31:25.628Z,5.85
2022-08-17T01:33:52.985Z,5.57
2022-08-17T01:36:19.954Z,5.53
2022-08-17T01:38:46.912Z,5.75
2022-08-17T01:41:14.797Z,5.28
2022-08-17T01:43:46.289Z,5.38
2022-08-17T01:46:21.886Z,5.63
2022-08-17T01:48:51.228Z,5.63
2022-08-17T01:51:18.265Z,5.70
2022-08-17T01:53:48.931Z,5.43
2022-08-17T01:56:18.345Z,6.45
2022-08-17T01:58:45.706Z,5.05
2022-08-17T02:01:14.853Z,6.03
2022-08-17T02:03:42.160Z,5.50
2022-08-17T02:06:27.553Z,4.82
2022-08-17T02:09:03.168Z,5.70
2022-08-17T02:11:32.285Z,5.18
2022-08-17T02:14:03.267Z,4.90
2022-08-17T02:16:37.916Z,5.10
2022-08-17T02:19:06.949Z,5.97
2022-08-17T02:21:34.323Z,5.50
2022-08-17T02:24:01.167Z,5.75
2022-08-17T02:26:28.271Z,5.53
2022-08-17T02:28:55.588Z,5.10
2022-08-17T02:31:22.491Z,5.82
2022-08-17T02:34:00.341Z,6.05
2022-08-17T02:36:35.018Z,5.50
2022-08-17T02:39:06.867Z,5.40
2022-08-17T02:41:33.921Z,5.18
2022-08-17T02:44:01.203Z,5.20
2022-08-17T02:46:28.605Z,6.15
2022-08-17T02:48:55.807Z,5.47
2022-08-17T02:51:22.668Z,5.30
2022-08-17T02:53:49.750Z,5.18
2022-08-17T02:56:16.769Z,5.55
2022-08-17T02:58:43.717Z,5.85
2022-08-17T03:01:10.873Z,5.72
2022-08-17T03:03:37.900Z,6.00
2022-08-17T03:06:05.210Z,5.53
2022-08-17T03:08:32.348Z,5.47
2022-08-17T03:10:59.628Z,5.93
2022-08-17T03:13:27.302Z,5.20
2022-08-17T03:15:54.544Z,5.25
2022-08-17T03:18:25.027Z,5.82
2022-08-17T03:20:57.630Z,5.43
2022-08-17T03:23:25.530Z,5.47
2022-08-17T03:25:52.808Z,6.13
2022-08-17T03:28:20.546Z,5.90
2022-08-17T03:30:47.988Z,5.95
2022-08-17T03:33:14.953Z,5.70
2022-08-17T03:35:41.897Z,5.43
2022-08-17T03:38:10.177Z,5.32
2022-08-17T03:40:56.464Z,5.18
2022-08-17T03:43:24.302Z,6.32
2022-08-17T03:46:11.082Z,4.80
2022-08-17T03:49:15.348Z,5.75
2022-08-17T03:52:00.798Z,5.32
2022-08-17T03:54:46.382Z,4.97
2022-08-17T03:57:13.629Z,5.57
2022-08-17T03:59:41.015Z,5.75
2022-08-17T04:02:10.029Z,5.20
2022-08-17T04:04:37.170Z,5.90
2022-08-17T04:07:04.593Z,6.30
2022-08-17T04:09:31.538Z,5.55
2022-08-17T04:12:01.298Z,5.38
2022-08-17T04:14:50.813Z,5.80
2022-08-17T04:17:25.159Z,5.30
2022-08-17T04:19:52.498Z,5.63
2022-08-17T04:22:30.131Z,5.00
2022-08-17T04:25:14.760Z,5.45
2022-08-17T04:27:41.627Z,5.22
2022-08-17T04:30:09.328Z,5.35
2022-08-17T04:33:03.401Z,4.75
2022-08-17T04:35:36.536Z,6.25
2022-08-17T04:38:03.709Z,5.53
2022-08-17T04:40:49.158Z,4.95
2022-08-17T04:43:22.647Z,5.22
2022-08-17T04:45:57.590Z,5.60
2022-08-17T04:48:36.889Z,7.63
2022-08-17T04:51:15.965Z,6.55
2022-08-17T04:53:44.489Z,5.32
2022-08-17T04:56:16.754Z,5.57
2022-08-17T04:58:45.193Z,5.68
2022-08-17T05:01:12.420Z,5.03
2022-08-17T05:03:39.391Z,6.88
2022-08-17T05:06:06.774Z,4.78
2022-08-17T05:08:33.747Z,5.88
2022-08-17T05:11:00.656Z,4.90
2022-08-17T05:13:29.809Z,6.82
2022-08-17T05:16:01.024Z,5.88
2022-08-17T05:18:28.657Z,5.43
2022-08-17T05:20:56.129Z,5.95
2022-08-17T05:23:24.073Z,5.53
2022-08-17T05:25:52.387Z,5.38
2022-08-17T05:28:24.099Z,5.60
2022-08-17T05:30:56.213Z,4.85
2022-08-17T05:33:25.316Z,5.13
2022-08-17T05:35:56.242Z,6.55
2022-08-17T05:38:24.355Z,5.60
2022-08-17T05:40:51.416Z,5.20
2022-08-17T05:43:20.493Z,5.43
2022-08-17T05:46:06.348Z,6.18
2022-08-17T05:48:43.940Z,4.57
2022-08-17T05:51:39.105Z,5.65
2022-08-17T05:54:17.836Z,4.67
2022-08-17T05:57:11.109Z,5.55
2022-08-17T05:59:42.654Z,5.40
2022-08-17T06:02:19.292Z,5.43
2022-08-17T06:05:06.251Z,8.13
2022-08-17T06:08:00.387Z,5.57
2022-08-17T06:10:34.831Z,5.38
2022-08-17T06:13:43.728Z,5.47
2022-08-17T06:16:33.891Z,6.65
2022-08-17T06:19:32.890Z,6.28
2022-08-17T06:21:59.764Z,5.68
2022-08-17T06:24:40.548Z,5.68
2022-08-17T06:27:30.389Z,5.72
2022-08-17T06:30:02.884Z,5.50
2022-08-17T06:32:29.813Z,5.28
2022-08-17T06:34:57.532Z,5.30
2022-08-17T06:37:59.479Z,4.57
2022-08-17T06:40:45.627Z,4.90
2022-08-17T06:43:24.526Z,5.53
2022-08-17T06:45:56.972Z,5.93
2022-08-17T06:48:43.808Z,4.97
2022-08-17T06:51:22.273Z,6.72
2022-08-17T06:53:53.867Z,5.07
2022-08-17T06:56:52.920Z,4.82
2022-08-17T06:59:19.405Z,6.20
2022-08-17T07:01:46.986Z,6.07
2022-08-17T07:04:18.350Z,5.25
2022-08-17T07:06:48.537Z,4.75
2022-08-17T07:09:50.952Z,6.03
2022-08-17T07:12:22.203Z,5.18
2022-08-17T07:14:58.948Z,4.88
2022-08-17T07:17:57.734Z,4.63
2022-08-17T07:20:20.650Z,4.57
2022-08-17T07:23:00.619Z,4.72
2022-08-17T07:25:28.647Z,5.18
2022-08-17T07:27:59.762Z,5.03
2022-08-17T07:30:31.712Z,6.28
2022-08-17T07:33:13.896Z,5.15
2022-08-17T07:35:43.791Z,5.30
2022-08-17T07:38:28.443Z,4.70
2022-08-17T07:41:01.245Z,5.28
2022-08-17T07:43:29.464Z,5.00
2022-08-17T07:46:41.150Z,5.00
2022-08-17T07:49:11.220Z,6.35
2022-08-17T07:51:55.530Z,4.70
2022-08-17T07:57:20.221Z,4.65
2022-08-17T08:00:03.053Z,5.30
2022-08-17T08:02:38.838Z,4.78
2022-08-17T08:05:46.681Z,4.75
2022-08-17T08:08:21.513Z,4.65
2022-08-17T08:10:58.429Z,4.63
2022-08-17T08:13:28.041Z,5.30
2022-08-17T08:15:57.022Z,4.18
2022-08-17T08:18:53.387Z,4.38
2022-08-17T08:21:33.247Z,4.25
2022-08-17T08:24:21.026Z,4.45
2022-08-17T08:26:48.169Z,4.25
2022-08-17T08:29:40.616Z,5.15
2022-08-17T08:32:27.027Z,4.43
2022-08-17T08:35:10.424Z,4.45
2022-08-17T08:37:58.148Z,4.97
2022-08-17T08:40:28.087Z,4.65
2022-08-17T08:43:11.661Z,4.43
2022-08-17T08:46:04.830Z,4.78
2022-08-17T08:48:53.123Z,6.43
2022-08-17T08:51:41.764Z,4.47
2022-08-17T08:54:43.129Z,4.53
2022-08-17T08:57:34.076Z,4.68
2022-08-17T09:00:15.694Z,5.10
2022-08-17T09:02:58.535Z,5.13
2022-08-17T09:06:04.251Z,5.15
2022-08-17T09:09:13.153Z,5.05
2022-08-17T09:12:03.566Z,5.60
2022-08-17T09:14:44.888Z,5.10
2022-08-17T09:18:08.640Z,4.72
2022-08-17T09:20:51.569Z,5.32
2022-08-17T09:23:39.534Z,5.97
2022-08-17T09:26:10.728Z,4.25
2022-08-17T09:28:39.241Z,5.75
2022-08-17T09:31:12.098Z,5.47
2022-08-17T09:33:42.539Z,4.78
2022-08-17T09:36:13.575Z,4.57
2022-08-17T09:38:49.698Z,4.53
2022-08-17T09:41:28.690Z,5.38
2022-08-17T09:44:08.568Z,5.00
2022-08-17T09:47:10.413Z,6.35
2022-08-17T09:49:51.770Z,5.25
2022-08-17T09:52:25.906Z,4.93
2022-08-17T09:54:54.480Z,5.32
2022-08-17T09:57:59.058Z,6.97
2022-08-17T10:00:29.412Z,4.97
2022-08-17T10:03:26.100Z,5.35
2022-08-17T10:06:06.594Z,5.05
2022-08-17T10:08:40.156Z,4.93
2022-08-17T10:11:51.343Z,4.93
2022-08-17T10:14:37.873Z,5.50
2022-08-17T10:17:17.744Z,5.40
2022-08-17T10:20:10.024Z,4.50
2022-08-17T10:23:03.725Z,4.97
2022-08-17T10:26:08.922Z,5.03
2022-08-17T10:34:20.064Z,5.35
2022-08-17T10:37:07.357Z,5.28
2022-08-17T10:39:57.515Z,5.55
2022-08-17T10:42:32.912Z,5.95
2022-08-17T10:45:06.013Z,5.68
2022-08-17T10:48:07.459Z,5.28
2022-08-17T10:50:57.723Z,5.32
2022-08-17T10:53:33.795Z,5.40
2022-08-17T10:56:17.480Z,6.00
2022-08-17T10:58:55.269Z,5.93
2022-08-17T11:01:51.639Z,6.93
2022-08-17T11:04:18.725Z,6.47
2022-08-17T11:06:52.078Z,6.60
2022-08-17T11:10:03.774Z,6.45
2022-08-17T11:12:54.361Z,6.95
2022-08-17T11:16:06.230Z,6.03
2022-08-17T11:19:10.789Z,6.30
2022-08-17T11:22:00.445Z,5.90
2022-08-17T11:24:33.633Z,6.10
2022-08-17T11:27:07.737Z,6.50
2022-08-17T11:30:02.223Z,5.57
2022-08-17T11:32:47.553Z,5.72
2022-08-17T11:35:26.829Z,5.80
2022-08-17T11:38:16.311Z,5.43
2022-08-17T11:41:08.890Z,5.15
2022-08-17T11:43:57.866Z,5.32
2022-08-17T11:47:11.026Z,6.10
2022-08-17T11:50:15.870Z,5.90
2022-08-17T11:52:46.878Z,5.43
2022-08-17T11:55:44.745Z,5.57
2022-08-17T11:58:30.460Z,5.55
2022-08-17T12:01:01.870Z,5.97
2022-08-17T12:03:32.440Z,6.68
2022-08-17T12:06:08.536Z,5.68
2022-08-17T12:08:35.799Z,6.32
2022-08-17T12:11:58.598Z,5.97
2022-08-17T12:14:45.090Z,6.53
2022-08-17T12:17:14.226Z,5.60
2022-08-17T12:19:53.677Z,6.05
2022-08-17T12:22:33.404Z,5.07
2022-08-17T12:25:11.879Z,5.70
2022-08-17T12:28:04.424Z,5.40
2022-08-17T12:30:32.111Z,6.07
2022-08-17T12:32:59.041Z,5.63
2022-08-17T12:35:29.957Z,6.18
2022-08-17T12:37:58.147Z,5.97
2022-08-17T12:40:29.595Z,5.55
2022-08-17T12:43:01.532Z,6.47
2022-08-17T12:45:30.775Z,5.93
2022-08-17T12:48:08.511Z,5.80
2022-08-17T12:50:37.265Z,5.85
2022-08-17T12:53:04.444Z,5.97
2022-08-17T12:55:36.435Z,6.20
2022-08-17T12:58:03.749Z,6.50
2022-08-17T13:00:34.539Z,5.25
2022-08-17T13:03:19.351Z,5.65
2022-08-17T13:05:52.543Z,5.47
2022-08-17T13:08:35.641Z,5.78
2022-08-17T13:11:18.766Z,5.32
2022-08-17T13:13:54.328Z,5.93
2022-08-17T13:16:23.964Z,5.85
2022-08-17T13:18:54.965Z,5.70
2022-08-17T13:21:27.176Z,5.15
2022-08-17T13:24:04.217Z,5.40
2022-08-17T13:26:35.590Z,5.70
2022-08-17T13:29:07.768Z,5.20
2022-08-17T13:31:52.066Z,5.18
2022-08-17T13:34:29.269Z,5.05
2022-08-17T13:37:34.670Z,5.57
2022-08-17T13:42:52.141Z,5.35
2022-08-17T13:45:36.743Z,4.88
2022-08-17T13:48:11.929Z,4.80
2022-08-17T13:50:54.670Z,8.48
2022-08-17T13:53:31.277Z,4.78
2022-08-17T13:56:05.708Z,5.03
2022-08-17T13:58:37.303Z,4.53
2022-08-17T14:01:31.040Z,12.70
2022-08-17T14:03:58.740Z,5.55
2022-08-17T14:06:52.612Z,4.90
2022-08-17T14:09:14.020Z,4.55
2022-08-17T14:11:41.518Z,4.50
2022-08-17T14:14:08.465Z,4.80
2022-08-17T14:16:35.598Z,4.20
2022-08-17T14:19:02.500Z,4.90
2022-08-17T14:21:29.349Z,4.30
2022-08-17T14:23:56.596Z,4.85
2022-08-17T14:26:23.830Z,4.82
2022-08-17T14:28:56.644Z,4.70
2022-08-17T14:31:24.238Z,4.70
2022-08-17T14:33:52.136Z,4.40
2022-08-17T14:36:19.100Z,4.15
2022-08-17T14:38:46.284Z,4.78
2022-08-17T14:41:13.243Z,4.60
2022-08-17T14:43:40.205Z,4.68
2022-08-17T14:46:07.492Z,4.85
2022-08-17T14:48:38.359Z,4.15
2022-08-17T14:51:05.420Z,4.38
2022-08-17T14:53:32.804Z,4.28
2022-08-17T14:56:01.606Z,4.63
2022-08-17T14:58:29.665Z,4.03
2022-08-17T15:00:57.355Z,4.38
2022-08-17T15:03:24.364Z,5.00
2022-08-17T15:05:51.253Z,4.60
2022-08-17T15:08:19.607Z,7.07
2022-08-17T15:10:46.593Z,7.50
2022-08-17T15:13:21.585Z,10.20
2022-08-17T15:15:48.976Z,5.65
2022-08-17T15:18:16.132Z,9.68
2022-08-17T15:20:44.396Z,4.68
2022-08-17T15:23:19.940Z,6.10
2022-08-17T15:25:47.548Z,5.85
2022-08-17T15:28:15.456Z,4.20
2022-08-17T15:30:44.876Z,4.10
2022-08-17T15:33:16.430Z,4.97
2022-08-17T15:35:43.906Z,5.63
2022-08-17T15:38:12.286Z,5.45
2022-08-17T15:40:44.251Z,4.60
2022-08-17T15:43:20.124Z,5.03
2022-08-17T15:46:00.967Z,4.47
2022-08-17T15:48:41.326Z,5.60
2022-08-17T15:51:15.918Z,4.95
2022-08-17T15:53:44.652Z,5.05
2022-08-17T15:56:13.320Z,4.45
2022-08-17T15:58:41.950Z,4.32
2022-08-17T16:01:14.996Z,5.22
2022-08-17T16:04:04.358Z,4.93
2022-08-17T16:06:34.586Z,4.55
2022-08-17T16:09:01.570Z,4.70
2022-08-17T16:11:28.443Z,4.63
2022-08-17T16:13:56.197Z,4.75
2022-08-17T16:16:23.774Z,7.22
2022-08-17T16:18:56.327Z,11.32
2022-08-17T16:21:26.128Z,10.27
2022-08-17T16:24:01.197Z,10.38
2022-08-17T16:26:29.290Z,8.00
2022-08-17T16:28:57.018Z,5.60
2022-08-17T16:31:23.942Z,4.43
2022-08-17T16:34:16.100Z,5.70
2022-08-17T16:36:38.260Z,6.68
2022-08-17T16:39:05.554Z,6.18
2022-08-17T16:41:45.140Z,5.18
2022-08-17T16:44:15.886Z,5.53
2022-08-17T16:46:45.762Z,6.18
2022-08-17T16:49:35.079Z,5.75
2022-08-17T16:52:01.741Z,5.78
2022-08-17T16:54:28.902Z,9.00
2022-08-17T16:56:55.840Z,5.80
2022-08-17T16:59:38.723Z,4.53
2022-08-17T17:02:11.019Z,5.45
2022-08-17T17:04:42.145Z,7.68
2022-08-17T17:07:25.746Z,4.53
2022-08-17T17:09:55.455Z,5.73
2022-08-17T17:12:38.161Z,5.63
2022-08-17T17:15:09.769Z,6.43
2022-08-17T17:17:37.729Z,5.45
2022-08-17T17:20:13.704Z,5.57
2022-08-17T17:22:54.129Z,4.85
2022-08-17T17:25:27.971Z,6.50
2022-08-17T17:28:15.455Z,5.32
2022-08-17T17:31:03.295Z,4.85
2022-08-17T17:33:50.952Z,5.38
2022-08-17T17:36:40.400Z,4.88
2022-08-17T17:39:32.784Z,5.07
2022-08-17T17:42:00.183Z,4.43
2022-08-17T17:44:33.221Z,4.38
2022-08-17T17:47:01.548Z,4.00
2022-08-17T17:49:39.813Z,4.80
2022-08-17T17:52:36.206Z,5.32
2022-08-17T17:55:24.606Z,5.18
2022-08-17T17:58:07.089Z,4.47
2022-08-17T18:01:25.795Z,6.78
2022-08-17T18:04:26.810Z,4.03
2022-08-17T18:07:12.325Z,4.57
2022-08-17T18:10:01.498Z,4.28
2022-08-17T18:12:51.569Z,4.70
2022-08-17T18:15:35.581Z,4.00
2022-08-17T18:18:25.373Z,4.65
2022-08-17T18:20:56.054Z,4.55
2022-08-17T18:23:28.118Z,3.90
2022-08-17T18:25:55.579Z,4.45
2022-08-17T18:28:26.744Z,4.68
2022-08-17T18:31:14.632Z,4.65
2022-08-17T18:33:43.453Z,4.70
2022-08-17T18:36:11.552Z,4.72
2022-08-17T18:38:40.624Z,5.95
2022-08-17T18:41:19.558Z,5.38
2022-08-17T18:44:02.365Z,4.38
2022-08-17T18:46:35.962Z,4.38
2022-08-17T18:49:07.837Z,4.65
2022-08-17T18:51:41.724Z,4.97
2022-08-17T18:54:23.266Z,5.40
2022-08-17T18:56:54.377Z,4.53
2022-08-17T18:59:41.117Z,4.13
2022-08-17T19:02:22.101Z,4.72
2022-08-17T19:05:13.708Z,4.43
2022-08-17T19:07:45.299Z,4.40
2022-08-17T19:10:28.884Z,5.03
2022-08-17T19:13:12.670Z,5.30
2022-08-17T19:15:44.058Z,4.95
2022-08-17T19:18:21.733Z,5.38
2022-08-17T19:21:10.068Z,5.35
2022-08-17T19:24:00.801Z,5.85
2022-08-17T19:26:54.709Z,5.30
2022-08-17T19:29:46.735Z,5.82
2022-08-17T19:32:15.900Z,5.20
2022-08-17T19:34:44.519Z,5.45
2022-08-17T19:37:36.430Z,5.28
2022-08-17T19:40:51.679Z,5.88
2022-08-17T19:43:48.166Z,5.18
2022-08-17T19:46:56.284Z,5.38
2022-08-17T19:49:41.415Z,5.82
2022-08-17T19:52:27.206Z,5.63
2022-08-17T19:55:01.206Z,5.95
2022-08-17T19:57:44.212Z,5.57
2022-08-17T20:00:14.196Z,6.53
2022-08-17T20:02:41.263Z,6.10
2022-08-17T20:05:12.944Z,6.40
2022-08-17T20:07:56.888Z,6.18
2022-08-17T20:10:39.434Z,8.03
2022-08-17T20:13:11.228Z,6.50
2022-08-17T20:15:40.730Z,6.32
2022-08-17T20:18:12.592Z,5.85
2022-08-17T20:20:46.697Z,7.90
2022-08-17T20:23:23.004Z,6.80
2022-08-17T20:26:08.428Z,7.22
2022-08-17T20:28:35.783Z,7.00
2022-08-17T20:31:03.131Z,7.47
2022-08-17T20:33:36.822Z,7.65
2022-08-17T20:36:16.257Z,7.68
2022-08-17T20:38:49.327Z,8.38
2022-08-17T20:41:20.845Z,7.22
2022-08-17T20:43:55.492Z,6.57
2022-08-17T20:46:38.049Z,6.95
2022-08-17T20:49:11.028Z,6.93
2022-08-17T20:52:03.056Z,7.53
2022-08-17T20:54:51.000Z,7.63
2022-08-17T20:57:33.548Z,6.28
2022-08-17T21:00:14.248Z,7.57
2022-08-17T21:02:46.435Z,7.38
2022-08-17T21:05:30.073Z,7.72
2022-08-17T21:08:16.634Z,8.27
2022-08-17T21:10:45.499Z,8.70
2022-08-17T21:13:13.875Z,7.60
2022-08-17T21:15:49.675Z,9.07
2022-08-17T21:18:29.044Z,8.13
2022-08-17T21:21:17.721Z,7.43
2022-08-17T21:24:03.515Z,7.82
2022-08-17T21:26:33.092Z,7.55
2022-08-17T21:29:29.659Z,7.60
2022-08-17T21:32:00.646Z,7.97
2022-08-17T21:34:33.266Z,10.10
2022-08-17T21:37:19.202Z,7.85
2022-08-17T21:39:57.777Z,8.30
2022-08-17T21:42:28.615Z,8.25
2022-08-17T21:45:00.040Z,8.15
2022-08-17T21:47:28.698Z,8.27
2022-08-17T21:49:56.216Z,7.85
2022-08-17T21:52:24.164Z,7.13
2022-08-17T21:54:56.581Z,9.13
2022-08-17T21:57:27.638Z,8.30
2022-08-17T21:59:59.993Z,7.85
2022-08-17T22:02:34.260Z,8.20
2022-08-17T22:05:04.616Z,8.63
2022-08-17T22:07:36.124Z,8.13
2022-08-17T22:10:04.971Z,7.78
2022-08-17T22:12:31.839Z,7.22
2022-08-17T22:15:00.660Z,8.00
2022-08-17T22:17:35.997Z,7.85
2022-08-17T22:20:19.752Z,7.38
2022-08-17T22:23:08.491Z,7.47
2022-08-17T22:25:40.675Z,7.97
2022-08-17T22:28:11.886Z,8.63
2022-08-17T22:30:39.408Z,7.47
2022-08-17T22:33:44.640Z,7.65
2022-08-17T22:36:22.766Z,8.70
2022-08-17T22:38:50.491Z,8.93
2022-08-17T22:41:30.196Z,7.45
2022-08-17T22:43:57.511Z,7.72
2022-08-17T22:46:25.613Z,7.30
2022-08-17T22:48:54.663Z,8.30
2022-08-17T22:51:25.920Z,7.57
2022-08-17T22:54:17.815Z,7.45
2022-08-17T22:57:11.271Z,7.45
2022-08-17T22:59:44.411Z,7.82
2022-08-17T23:02:26.107Z,8.13
2022-08-17T23:05:15.867Z,8.25
2022-08-17T23:07:44.359Z,7.35
2022-08-17T23:10:12.024Z,7.93
2022-08-17T23:12:39.917Z,7.88
2022-08-17T23:15:30.674Z,7.75
2022-08-17T23:17:57.811Z,8.50
2022-08-17T23:20:24.745Z,8.10
2022-08-17T23:22:53.094Z,8.05
2022-08-17T23:25:31.330Z,8.07
2022-08-17T23:28:01.652Z,8.02
2022-08-17T23:30:31.200Z,7.88
2022-08-17T23:33:01.210Z,8.05
2022-08-17T23:35:40.405Z,8.25
2022-08-17T23:38:11.838Z,7.85
2022-08-17T23:40:39.391Z,7.80
2022-08-17T23:43:23.479Z,7.20
2022-08-17T23:45:57.606Z,8.43
2022-08-17T23:48:35.346Z,8.38
2022-08-17T23:51:14.234Z,7.90
2022-08-17T23:53:46.230Z,8.27
2022-08-17T23:56:13.600Z,7.57
2022-08-17T23:58:42.354Z,8.27
